Time;durP1;ratioP1;P1;durP2;ratioP2;P2;SDS_P1;SDS_P2;PMS_P1;PMS_P2;Temp;Humidity;BMP_temperature;BMP_pressure;BME280_temperature;BME280_humidity;BME280_pressure;Samples;Min_cycle;Max_cycle;Signal;HPM_P1;HPM_P2
2021/01/22 00:01:35;;;;;;;51.55;25.27;;;0.10;63.40;;;;;;4916864;29;20052;-76
2021/01/22 00:04:07;;;;;;;48.03;24.92;;;0.10;63.30;;;;;;4931799;29;20039;-75
2021/01/22 00:06:44;;;;;;;54.78;27.05;;;0.10;63.40;;;;;;4916745;29;20506;-74
2021/01/22 00:09:24;;;;;;;52.17;25.02;;;0.10;63.50;;;;;;4917539;29;20063;-75
2021/01/22 00:11:52;;;;;;;47.80;25.30;;;0.00;63.50;;;;;;4917448;29;20048;-74
2021/01/22 00:17:37;;;;;;;49.22;26.13;;;0.10;63.70;;;;;;4917323;29;20131;-75
2021/01/22 00:20:59;;;;;;;48.50;24.77;;;0.10;63.60;;;;;;4917487;29;20475;-76
2021/01/22 00:23:57;;;;;;;49.28;23.80;;;0.10;63.60;;;;;;4917296;29;20055;-75
2021/01/22 00:26:41;;;;;;;52.75;27.13;;;0.10;64.30;;;;;;4917822;29;20051;-75
2021/01/22 00:29:26;;;;;;;50.70;25.42;;;0.00;63.70;;;;;;4917120;29;20051;-75
2021/01/22 00:31:58;;;;;;;48.05;24.73;;;0.10;63.70;;;;;;4931891;29;20040;-76
2021/01/22 00:34:32;;;;;;;49.28;25.58;;;0.10;63.60;;;;;;4916078;29;20066;-76
2021/01/22 00:37:12;;;;;;;51.67;26.15;;;0.00;63.80;;;;;;4948287;29;20070;-75
2021/01/22 00:39:45;;;;;;;51.00;25.08;;;0.10;63.80;;;;;;4946700;28;20123;-75
2021/01/22 00:42:15;;;;;;;50.53;24.92;;;0.10;63.80;;;;;;4900134;29;20147;-76
2021/01/22 00:44:54;;;;;;;48.08;25.25;;;0.10;63.70;;;;;;4918725;29;20143;-78
2021/01/22 00:47:25;;;;;;;49.40;25.25;;;0.10;63.80;;;;;;4946260;29;20055;-76
2021/01/22 00:49:55;;;;;;;51.85;26.48;;;0.10;63.80;;;;;;4932208;29;20044;-77
2021/01/22 00:52:26;;;;;;;48.58;24.85;;;0.00;63.80;;;;;;4900299;29;20422;-76
2021/01/22 00:54:57;;;;;;;49.85;26.05;;;0.00;64.00;;;;;;4931087;29;20028;-74
2021/01/22 00:57:46;;;;;;;50.67;25.42;;;0.10;63.90;;;;;;4916698;29;20467;-77
2021/01/22 01:00:23;;;;;;;50.38;26.40;;;0.00;63.90;;;;;;4915476;29;20098;-76
2021/01/22 01:03:03;;;;;;;50.33;26.25;;;0.10;64.00;;;;;;4934369;29;20103;-74
2021/01/22 01:05:30;;;;;;;54.83;27.73;;;0.00;63.90;;;;;;4947025;29;20036;-75
2021/01/22 01:07:57;;;;;;;55.85;27.83;;;0.10;64.00;;;;;;4916338;29;20495;-76
2021/01/22 01:10:42;;;;;;;60.58;28.70;;;0.10;63.90;;;;;;4915616;29;20040;-74
2021/01/22 01:13:35;;;;;;;57.42;28.25;;;0.10;63.80;;;;;;4915471;29;20569;-75
2021/01/22 01:16:26;;;;;;;56.10;29.50;;;0.10;63.80;;;;;;4915540;29;20048;-74
2021/01/22 01:19:10;;;;;;;63.38;30.83;;;0.10;63.80;;;;;;4916493;29;20070;-74
2021/01/22 01:21:45;;;;;;;65.63;32.35;;;0.10;63.80;;;;;;4930987;29;20040;-74
2021/01/22 01:24:15;;;;;;;65.78;34.00;;;0.10;63.80;;;;;;4931141;29;20040;-74
2021/01/22 01:26:52;;;;;;;65.78;32.95;;;0.10;63.90;;;;;;4915403;29;20056;-74
2021/01/22 01:29:41;;;;;;;69.25;34.63;;;0.10;64.00;;;;;;4915385;29;20043;-74
2021/01/22 01:32:15;;;;;;;67.45;33.88;;;0.10;63.90;;;;;;4933020;29;20074;-75
2021/01/22 01:34:42;;;;;;;69.50;34.03;;;0.10;64.00;;;;;;4901442;29;20052;-75
2021/01/22 01:37:11;;;;;;;71.55;34.25;;;0.10;64.00;;;;;;4917375;29;20051;-75
2021/01/22 01:39:46;;;;;;;68.10;34.42;;;0.10;64.00;;;;;;4933072;29;20402;-76
2021/01/22 01:42:17;;;;;;;74.60;34.65;;;0.10;64.10;;;;;;4930395;29;20079;-75
2021/01/22 01:45:09;;;;;;;68.03;32.92;;;0.10;64.10;;;;;;4933431;29;20044;-74
2021/01/22 01:48:13;;;;;;;62.60;30.95;;;0.00;64.20;;;;;;4918025;29;20047;-77
2021/01/22 01:50:53;;;;;;;64.43;32.20;;;0.10;64.20;;;;;;4918994;29;20050;-76
2021/01/22 01:53:26;;;;;;;62.55;31.27;;;0.10;64.30;;;;;;4953051;29;20055;-74
2021/01/22 01:56:02;;;;;;;60.17;29.73;;;0.10;64.30;;;;;;4936043;29;20506;-74
2021/01/22 01:58:30;;;;;;;66.35;31.23;;;0.10;64.20;;;;;;4952103;29;20110;-77
2021/01/22 02:01:01;;;;;;;64.05;31.70;;;0.10;64.20;;;;;;4920767;29;20032;-76
2021/01/22 02:03:39;;;;;;;64.35;31.25;;;0.10;64.20;;;;;;4918056;29;20545;-76
2021/01/22 02:06:05;;;;;;;59.58;30.38;;;0.10;64.30;;;;;;4902143;29;20071;-75
2021/01/22 02:08:33;;;;;;;66.03;33.08;;;0.10;64.20;;;;;;4950069;29;20036;-74
2021/01/22 02:11:04;;;;;;;64.72;31.35;;;0.10;64.20;;;;;;4934527;29;20075;-75
2021/01/22 02:13:31;;;;;;;61.45;31.15;;;0.10;64.20;;;;;;4950556;29;20039;-74
2021/01/22 02:15:58;;;;;;;60.58;30.98;;;0.10;64.20;;;;;;4919816;29;20036;-75
2021/01/22 02:18:26;;;;;;;59.47;29.45;;;0.10;64.10;;;;;;4919905;29;20043;-74
2021/01/22 02:21:34;;;;;;;60.20;29.92;;;0.10;64.20;;;;;;4918305;29;20051;-76
2021/01/22 02:24:14;;;;;;;60.60;30.60;;;0.10;64.30;;;;;;4948650;29;20143;-77
2021/01/22 02:27:15;;;;;;;57.30;30.27;;;0.10;64.20;;;;;;4933467;29;20083;-76
2021/01/22 02:29:41;;;;;;;60.08;30.27;;;0.10;64.20;;;;;;4901596;29;20051;-74
2021/01/22 02:32:17;;;;;;;53.22;28.33;;;0.10;64.20;;;;;;4917358;29;20487;-75
2021/01/22 02:34:52;;;;;;;60.47;31.00;;;0.10;64.20;;;;;;4901753;29;20044;-75
2021/01/22 02:37:24;;;;;;;57.20;30.67;;;0.10;64.30;;;;;;4901244;29;20076;-75
2021/01/22 02:40:15;;;;;;;61.05;29.80;;;0.10;64.40;;;;;;4901299;29;20510;-76
2021/01/22 02:42:50;;;;;;;58.42;29.65;;;0.10;64.20;;;;;;4916432;29;20060;-75
2021/01/22 02:45:20;;;;;;;61.35;29.60;;;0.10;64.10;;;;;;4916961;29;20048;-74
2021/01/22 02:48:03;;;;;;;57.80;28.27;;;0.20;64.20;;;;;;4932657;29;20554;-75
2021/01/22 02:50:32;;;;;;;58.28;28.85;;;0.10;64.20;;;;;;4916818;29;20048;-76
2021/01/22 02:53:02;;;;;;;58.22;28.60;;;0.20;64.20;;;;;;4916589;29;20510;-75
2021/01/22 02:55:29;;;;;;;56.55;28.92;;;0.10;64.10;;;;;;4917992;29;20532;-75
2021/01/22 02:58:21;;;;;;;55.00;28.42;;;0.10;64.20;;;;;;4918674;29;20044;-76
2021/01/22 03:00:51;;;;;;;59.78;30.38;;;0.10;64.30;;;;;;4909397;29;20423;-76
2021/01/22 03:03:33;;;;;;;55.75;28.35;;;0.10;64.90;;;;;;4948301;28;20090;-75
2021/01/22 03:06:04;;;;;;;59.58;29.40;;;0.00;64.30;;;;;;4949072;29;20180;-76
2021/01/22 03:08:37;;;;;;;63.85;29.63;;;0.10;64.30;;;;;;4949383;29;20043;-75
2021/01/22 03:11:11;;;;;;;61.50;29.88;;;0.10;64.30;;;;;;4917022;29;20051;-75
2021/01/22 03:13:57;;;;;;;58.75;30.10;;;0.10;64.30;;;;;;4949281;29;20126;-74
2021/01/22 03:16:52;;;;;;;59.60;30.88;;;0.10;64.30;;;;;;4917470;29;20049;-76
2021/01/22 03:19:22;;;;;;;56.28;29.55;;;0.10;64.30;;;;;;4935313;29;20040;-75
2021/01/22 03:21:56;;;;;;;59.25;30.15;;;0.10;64.30;;;;;;4919232;29;20036;-76
2021/01/22 03:24:35;;;;;;;61.25;30.98;;;0.10;64.30;;;;;;4935399;29;20086;-75
2021/01/22 03:27:01;;;;;;;60.97;30.05;;;0.10;64.30;;;;;;4951486;29;20477;-78
2021/01/22 03:29:27;;;;;;;55.22;27.98;;;0.10;64.30;;;;;;4946987;29;20079;-79
2021/01/22 03:31:53;;;;;;;62.83;29.25;;;0.10;64.30;;;;;;4943011;29;20083;-79
2021/01/22 03:34:20;;;;;;;61.63;29.83;;;0.10;64.40;;;;;;4934790;29;20138;-78
2021/01/22 03:36:47;;;;;;;64.72;32.67;;;0.10;64.40;;;;;;4934912;29;20035;-81
2021/01/22 03:39:12;;;;;;;59.88;29.85;;;0.10;64.40;;;;;;4903094;29;20485;-81
2021/01/22 03:41:38;;;;;;;58.05;30.40;;;0.10;64.40;;;;;;4934776;29;20052;-79
2021/01/22 03:44:04;;;;;;;56.80;29.67;;;0.10;64.30;;;;;;4918959;29;20079;-79
2021/01/22 03:46:30;;;;;;;66.25;31.98;;;0.10;64.40;;;;;;4918952;29;20132;-82
2021/01/22 03:48:56;;;;;;;63.35;31.52;;;0.10;64.50;;;;;;4934707;29;20036;-80
2021/01/22 03:51:23;;;;;;;58.03;30.42;;;0.10;64.50;;;;;;4918259;29;20047;-79
2021/01/22 03:53:49;;;;;;;54.83;29.05;;;0.10;64.50;;;;;;4932285;29;20036;-79
2021/01/22 03:56:17;;;;;;;63.05;31.55;;;0.10;64.60;;;;;;4917903;29;20036;-78
2021/01/22 03:58:43;;;;;;;64.22;32.03;;;0.10;64.60;;;;;;4948527;29;20040;-79
2021/01/22 04:01:09;;;;;;;57.90;29.83;;;0.10;64.50;;;;;;4916869;29;20099;-78
2021/01/22 04:03:35;;;;;;;65.28;32.00;;;0.10;64.70;;;;;;4917974;29;20134;-79
2021/01/22 04:06:01;;;;;;;66.32;32.85;;;0.10;64.60;;;;;;4918639;29;20032;-81
2021/01/22 04:08:27;;;;;;;62.22;31.13;;;0.10;64.70;;;;;;4916475;29;20075;-81
2021/01/22 04:10:53;;;;;;;58.65;30.30;;;0.10;64.80;;;;;;4917451;29;20091;-79
2021/01/22 04:13:20;;;;;;;60.67;32.20;;;0.10;64.80;;;;;;4915900;29;20134;-81
2021/01/22 04:15:46;;;;;;;64.60;33.25;;;0.10;64.70;;;;;;4916283;29;20055;-77
2021/01/22 04:18:13;;;;;;;65.50;32.50;;;0.10;64.70;;;;;;4947738;29;20522;-78
2021/01/22 04:20:38;;;;;;;66.45;32.83;;;0.20;65.40;;;;;;4917478;29;20066;-77
2021/01/22 04:23:04;;;;;;;62.53;32.10;;;0.10;64.70;;;;;;4917206;29;20044;-76
2021/01/22 04:25:30;;;;;;;67.38;34.03;;;0.10;64.80;;;;;;4916332;29;20122;-76
2021/01/22 04:27:56;;;;;;;65.93;32.53;;;0.20;65.00;;;;;;4917493;29;20485;-77
2021/01/22 04:30:22;;;;;;;65.88;32.63;;;0.10;65.00;;;;;;4917105;29;20122;-77
2021/01/22 04:32:48;;;;;;;69.72;32.88;;;0.10;65.40;;;;;;4915867;29;20045;-78
2021/01/22 04:35:14;;;;;;;64.60;33.50;;;0.10;65.10;;;;;;4917262;29;20122;-80
2021/01/22 04:37:44;;;;;;;63.45;32.53;;;0.10;65.10;;;;;;4916009;29;20048;-75
2021/01/22 04:40:19;;;;;;;66.27;33.37;;;0.10;65.20;;;;;;4946405;29;20094;-76
2021/01/22 04:42:45;;;;;;;66.57;32.15;;;0.10;65.20;;;;;;4931021;29;20056;-79
2021/01/22 04:45:13;;;;;;;64.45;31.38;;;0.20;65.40;;;;;;4931692;29;20064;-78
2021/01/22 04:47:40;;;;;;;74.88;34.15;;;0.10;65.40;;;;;;4915352;29;20067;-77
2021/01/22 04:50:07;;;;;;;72.35;33.17;;;0.20;65.50;;;;;;4947462;29;20032;-77
2021/01/22 04:52:36;;;;;;;63.33;31.95;;;0.20;65.40;;;;;;4915809;29;20064;-77
2021/01/22 04:55:05;;;;;;;72.78;32.70;;;0.20;65.50;;;;;;4917075;29;20119;-79
2021/01/22 04:57:34;;;;;;;71.15;34.05;;;0.10;65.70;;;;;;4915769;29;20082;-77
2021/01/22 05:00:03;;;;;;;65.90;32.50;;;0.20;65.70;;;;;;4931157;29;20175;-77
2021/01/22 05:02:29;;;;;;;75.03;35.03;;;0.10;65.80;;;;;;4915579;29;20146;-77
2021/01/22 05:04:56;;;;;;;72.10;35.63;;;0.10;66.60;;;;;;4916682;29;20130;-78
2021/01/22 05:07:22;;;;;;;70.45;33.90;;;0.20;65.90;;;;;;4915393;29;20051;-79
2021/01/22 05:09:49;;;;;;;67.55;32.03;;;0.10;66.10;;;;;;4916706;29;20040;-77
2021/01/22 05:12:15;;;;;;;73.75;33.78;;;0.10;66.20;;;;;;4947375;29;20107;-77
2021/01/22 05:14:41;;;;;;;71.43;33.00;;;0.20;66.20;;;;;;4919802;29;20032;-74
2021/01/22 05:17:11;;;;;;;70.15;32.97;;;0.20;66.20;;;;;;4915286;29;20086;-75
2021/01/22 05:19:38;;;;;;;73.90;32.75;;;0.20;66.20;;;;;;4930977;29;20044;-80
2021/01/22 05:22:06;;;;;;;77.53;33.67;;;0.20;66.40;;;;;;4947242;29;20068;-73
2021/01/22 05:24:36;;;;;;;74.63;33.13;;;0.10;66.50;;;;;;4916051;29;20044;-75
2021/01/22 05:27:10;;;;;;;78.22;34.03;;;0.20;66.80;;;;;;4946334;29;20135;-74
2021/01/22 05:29:38;;;;;;;75.43;34.53;;;0.10;66.70;;;;;;4916421;29;20079;-74
2021/01/22 05:32:27;;;;;;;77.07;32.63;;;0.10;66.80;;;;;;4916221;29;20414;-71
2021/01/22 05:34:53;;;;;;;80.25;33.22;;;0.20;66.90;;;;;;4947027;29;20040;-74
2021/01/22 05:37:20;;;;;;;84.35;34.35;;;0.20;66.80;;;;;;4915048;29;20087;-73
2021/01/22 05:40:06;;;;;;;80.70;33.22;;;0.20;66.90;;;;;;4915994;29;20043;-72
2021/01/22 05:42:46;;;;;;;78.90;31.83;;;0.20;66.90;;;;;;4930386;29;20063;-72
2021/01/22 05:45:15;;;;;;;81.55;32.88;;;0.20;67.00;;;;;;4915147;29;20040;-73
2021/01/22 05:47:41;;;;;;;86.28;34.10;;;0.20;67.00;;;;;;4946763;29;20040;-73
2021/01/22 05:50:08;;;;;;;80.85;34.13;;;0.20;67.10;;;;;;4916009;29;20039;-72
2021/01/22 05:52:34;;;;;;;69.03;29.98;;;0.20;67.10;;;;;;4914775;29;20067;-72
2021/01/22 05:55:18;;;;;;;84.90;37.10;;;0.20;67.30;;;;;;4916295;29;20040;-71
2021/01/22 05:57:44;;;;;;;89.05;34.75;;;0.20;67.50;;;;;;4946543;29;20139;-72
2021/01/22 06:00:12;;;;;;;89.72;35.47;;;0.20;67.50;;;;;;4915938;29;20122;-72
2021/01/22 06:02:41;;;;;;;84.25;34.38;;;0.20;68.30;;;;;;4914555;29;20471;-73
2021/01/22 06:05:14;;;;;;;87.03;36.35;;;0.20;67.70;;;;;;4915922;29;20036;-72
2021/01/22 06:07:42;;;;;;;90.10;34.90;;;0.20;67.70;;;;;;4914813;29;20070;-74
2021/01/22 06:10:22;;;;;;;85.72;35.00;;;0.30;67.70;;;;;;4915929;29;20046;-73
2021/01/22 06:12:53;;;;;;;82.75;33.63;;;0.30;67.70;;;;;;4914528;29;20039;-72
2021/01/22 06:15:21;;;;;;;91.28;35.30;;;0.30;67.80;;;;;;4916378;29;20067;-74
2021/01/22 06:17:52;;;;;;;94.22;34.95;;;0.30;67.90;;;;;;4915780;29;20052;-73
2021/01/22 06:20:20;;;;;;;91.65;35.72;;;0.30;68.00;;;;;;4916168;29;20042;-73
2021/01/22 06:23:13;;;;;;;90.35;35.63;;;0.30;68.80;;;;;;4915720;29;20056;-76
2021/01/22 06:25:41;;;;;;;95.03;35.03;;;0.40;69.90;;;;;;4947456;29;20040;-74
2021/01/22 06:28:10;;;;;;;86.22;33.55;;;0.40;70.70;;;;;;4930855;29;20083;-75
2021/01/22 06:30:37;;;;;;;94.68;34.42;;;0.40;71.50;;;;;;4916310;29;20128;-76
2021/01/22 06:33:06;;;;;;;93.50;35.17;;;0.40;72.00;;;;;;4949139;29;20044;-76
2021/01/22 06:35:34;;;;;;;93.68;35.08;;;0.40;72.40;;;;;;4946041;29;20044;-75
2021/01/22 06:38:01;;;;;;;98.80;37.03;;;0.50;72.70;;;;;;4919272;29;20040;-75
2021/01/22 06:40:28;;;;;;;93.47;36.50;;;0.50;72.80;;;;;;4933624;29;20118;-76
2021/01/22 06:42:55;;;;;;;97.75;36.97;;;0.50;73.10;;;;;;4917660;29;20483;-74
2021/01/22 06:45:22;;;;;;;98.40;35.33;;;0.50;74.00;;;;;;4919220;29;20067;-76
2021/01/22 06:48:08;;;;;;;98.43;36.65;;;0.60;73.50;;;;;;4919220;29;20036;-76
2021/01/22 06:50:35;;;;;;;94.35;35.58;;;0.60;73.70;;;;;;4949673;29;20050;-75
2021/01/22 06:53:13;;;;;;;96.22;35.50;;;0.60;73.80;;;;;;4949750;29;20099;-75
2021/01/22 06:55:53;;;;;;;100.53;36.22;;;0.60;73.90;;;;;;4918996;29;20050;-75
2021/01/22 06:58:30;;;;;;;102.43;36.67;;;0.70;74.00;;;;;;4949911;29;20043;-73
2021/01/22 07:01:00;;;;;;;97.80;35.17;;;0.70;74.10;;;;;;4917657;29;20043;-74
2021/01/22 07:03:52;;;;;;;110.28;38.25;;;0.70;74.00;;;;;;4917430;29;20048;-74
2021/01/22 07:06:30;;;;;;;105.63;38.05;;;0.70;74.00;;;;;;4918455;29;20052;-76
2021/01/22 07:08:58;;;;;;;114.45;38.83;;;0.70;74.00;;;;;;4919347;29;20091;-75
2021/01/22 07:11:24;;;;;;;98.18;37.28;;;0.70;74.20;;;;;;4949558;29;20040;-76
2021/01/22 07:13:52;;;;;;;111.80;37.88;;;0.70;74.20;;;;;;4917413;29;20535;-77
2021/01/22 07:16:18;;;;;;;114.45;38.53;;;0.70;74.30;;;;;;4918943;29;20075;-78
2021/01/22 07:18:58;;;;;;;106.60;39.15;;;0.70;74.40;;;;;;4917423;29;20064;-75
2021/01/22 07:21:38;;;;;;;103.88;37.90;;;0.70;74.50;;;;;;4918666;29;20132;-76
2021/01/22 07:24:08;;;;;;;108.93;37.17;;;0.80;74.60;;;;;;4918671;29;20076;-76
2021/01/22 07:26:40;;;;;;;108.32;37.80;;;0.70;74.60;;;;;;4918882;29;20052;-76
2021/01/22 07:29:15;;;;;;;110.07;37.72;;;0.80;74.70;;;;;;4949164;29;20418;-78
2021/01/22 07:31:56;;;;;;;107.55;37.78;;;0.80;74.70;;;;;;4918288;29;20106;-75
2021/01/22 07:34:49;;;;;;;113.47;37.30;;;0.80;74.70;;;;;;4949170;29;20036;-75
2021/01/22 07:37:39;;;;;;;102.95;37.40;;;0.80;74.80;;;;;;4949226;29;20048;-74
2021/01/22 07:40:12;;;;;;;103.75;38.13;;;0.80;74.70;;;;;;4916671;29;20103;-73
2021/01/22 07:42:39;;;;;;;109.05;38.13;;;0.80;74.80;;;;;;4918429;29;20392;-73
2021/01/22 07:45:11;;;;;;;107.95;39.33;;;0.80;75.30;;;;;;4916914;29;20036;-73
2021/01/22 07:47:40;;;;;;;110.82;39.35;;;0.90;75.70;;;;;;4917960;29;20028;-74
2021/01/22 07:50:07;;;;;;;114.70;39.13;;;0.90;75.70;;;;;;4917940;29;20045;-73
2021/01/22 07:52:39;;;;;;;118.90;41.53;;;0.90;75.60;;;;;;4918231;29;20047;-74
2021/01/22 07:55:13;;;;;;;109.32;39.92;;;0.90;75.50;;;;;;4932690;29;20043;-73
2021/01/22 07:57:39;;;;;;;104.55;37.85;;;0.90;75.40;;;;;;4917761;29;20028;-71
2021/01/22 08:00:16;;;;;;;108.05;38.40;;;0.90;75.30;;;;;;4932911;29;20043;-72
2021/01/22 08:02:55;;;;;;;119.38;42.20;;;1.00;75.20;;;;;;4917660;29;20495;-74
2021/01/22 08:05:33;;;;;;;104.80;38.30;;;1.00;75.00;;;;;;4917738;29;20071;-75
2021/01/22 08:08:00;;;;;;;114.88;42.25;;;1.00;74.90;;;;;;4948202;29;20095;-74
2021/01/22 08:10:30;;;;;;;106.85;40.28;;;1.00;74.80;;;;;;4917566;29;20036;-74
2021/01/22 08:13:00;;;;;;;123.10;40.33;;;1.00;74.80;;;;;;4917930;29;20454;-75
2021/01/22 08:15:28;;;;;;;113.65;40.90;;;1.00;74.70;;;;;;4917569;29;20490;-76
2021/01/22 08:17:54;;;;;;;114.63;41.97;;;1.10;74.60;;;;;;4917374;29;20570;-75
2021/01/22 08:20:21;;;;;;;122.82;43.08;;;1.10;74.50;;;;;;4916648;29;20040;-74
2021/01/22 08:22:54;;;;;;;123.22;42.15;;;1.10;74.50;;;;;;4931872;29;20036;-74
2021/01/22 08:25:32;;;;;;;119.55;40.92;;;1.10;74.40;;;;;;4917612;29;20051;-74
2021/01/22 08:28:02;;;;;;;119.63;41.05;;;1.10;74.90;;;;;;4917552;29;20091;-75
2021/01/22 08:30:28;;;;;;;119.63;41.67;;;1.20;74.30;;;;;;4948019;29;20204;-75
2021/01/22 08:32:57;;;;;;;113.45;39.83;;;1.10;74.20;;;;;;4917385;29;20048;-75
2021/01/22 08:35:24;;;;;;;125.95;42.17;;;1.20;74.20;;;;;;4947580;29;20092;-77
2021/01/22 08:37:54;;;;;;;117.07;41.03;;;1.20;74.10;;;;;;4917269;29;20391;-75
2021/01/22 08:40:21;;;;;;;119.80;41.38;;;1.20;74.20;;;;;;4947720;29;20525;-74
2021/01/22 08:43:09;;;;;;;119.55;41.92;;;1.20;74.10;;;;;;4917110;29;20128;-74
2021/01/22 08:45:36;;;;;;;133.90;43.17;;;1.20;74.00;;;;;;4916481;29;20266;-80
2021/01/22 08:48:03;;;;;;;129.45;41.88;;;1.30;74.60;;;;;;4918267;29;20036;-74
2021/01/22 08:50:29;;;;;;;122.18;40.85;;;1.30;74.00;;;;;;4947660;29;20088;-76
2021/01/22 08:53:12;;;;;;;125.15;44.38;;;1.30;74.00;;;;;;4947707;29;20039;-74
2021/01/22 08:55:40;;;;;;;121.03;42.60;;;1.30;74.00;;;;;;4916615;29;20111;-75
2021/01/22 08:58:09;;;;;;;118.13;40.72;;;1.30;73.90;;;;;;4915512;29;20087;-76
2021/01/22 09:00:36;;;;;;;122.90;41.38;;;1.30;74.00;;;;;;4914667;29;20522;-75
2021/01/22 09:03:02;;;;;;;131.63;44.13;;;1.30;73.90;;;;;;4916850;29;20418;-75
2021/01/22 09:05:28;;;;;;;124.80;43.03;;;1.30;73.90;;;;;;4947701;29;20120;-75
2021/01/22 09:08:21;;;;;;;126.18;43.67;;;1.30;73.90;;;;;;4916492;29;20043;-75
2021/01/22 09:10:49;;;;;;;126.10;43.10;;;1.40;73.90;;;;;;4916056;29;20463;-76
2021/01/22 09:13:27;;;;;;;127.95;44.85;;;1.40;73.90;;;;;;4946838;29;20044;-75
2021/01/22 09:16:07;;;;;;;124.07;43.47;;;1.40;73.90;;;;;;4915346;29;20028;-74
2021/01/22 09:18:33;;;;;;;128.73;44.33;;;1.40;73.90;;;;;;4947169;29;20126;-72
2021/01/22 09:21:04;;;;;;;129.32;45.17;;;1.40;73.90;;;;;;4915586;29;20441;-76
2021/01/22 09:23:30;;;;;;;126.30;45.00;;;1.40;73.90;;;;;;4916191;29;20044;-76
2021/01/22 09:25:57;;;;;;;127.05;45.45;;;1.50;74.00;;;;;;4917140;29;20099;-78
2021/01/22 09:28:24;;;;;;;136.00;43.92;;;1.50;74.00;;;;;;4947164;29;20040;-76
2021/01/22 09:30:50;;;;;;;134.38;43.95;;;1.50;74.00;;;;;;4931094;29;20040;-76
2021/01/22 09:33:17;;;;;;;132.35;44.20;;;1.50;74.00;;;;;;4946818;29;20470;-75
2021/01/22 09:35:43;;;;;;;134.13;45.90;;;1.50;74.00;;;;;;4930742;29;20510;-76
2021/01/22 09:38:09;;;;;;;134.18;45.25;;;1.50;74.10;;;;;;4947102;29;20040;-74
2021/01/22 09:40:35;;;;;;;136.10;46.95;;;1.60;74.10;;;;;;4916417;29;20032;-74
2021/01/22 09:43:01;;;;;;;131.10;44.80;;;1.60;74.10;;;;;;4915923;29;20071;-73
2021/01/22 09:45:27;;;;;;;134.57;45.80;;;1.60;74.10;;;;;;4946655;29;20119;-74
2021/01/22 09:47:54;;;;;;;134.10;46.55;;;1.60;74.10;;;;;;4930762;29;20570;-73
2021/01/22 09:50:19;;;;;;;142.65;48.25;;;1.60;74.10;;;;;;4916473;29;20148;-75
2021/01/22 09:52:46;;;;;;;142.75;49.10;;;1.60;74.10;;;;;;4915283;29;20122;-76
2021/01/22 09:55:18;;;;;;;146.57;47.72;;;1.60;74.10;;;;;;4948007;29;20051;-75
2021/01/22 09:57:44;;;;;;;140.55;45.20;;;1.70;74.10;;;;;;4917872;29;20036;-76
2021/01/22 10:00:12;;;;;;;132.18;47.17;;;1.70;74.20;;;;;;4915927;29;20040;-74
2021/01/22 10:02:37;;;;;;;136.15;44.95;;;1.70;74.20;;;;;;4946347;29;20055;-76
2021/01/22 10:05:05;;;;;;;133.60;46.00;;;1.70;74.20;;;;;;4916153;29;20402;-75
2021/01/22 10:07:31;;;;;;;136.82;46.70;;;1.70;74.20;;;;;;4916113;29;20060;-76
2021/01/22 10:09:57;;;;;;;134.50;46.03;;;1.70;74.20;;;;;;4915053;29;20072;-75
2021/01/22 10:12:23;;;;;;;139.43;45.80;;;1.70;74.20;;;;;;4918316;29;20059;-75
2021/01/22 10:14:49;;;;;;;135.70;46.08;;;1.70;74.30;;;;;;4918476;29;20036;-75
2021/01/22 10:17:15;;;;;;;128.73;45.53;;;1.80;74.30;;;;;;4919582;29;20050;-75
2021/01/22 10:19:41;;;;;;;132.80;45.38;;;1.70;74.20;;;;;;4918404;29;20043;-76
2021/01/22 10:22:06;;;;;;;139.73;46.40;;;1.80;74.30;;;;;;4919506;29;20036;-76
2021/01/22 10:24:32;;;;;;;136.02;46.38;;;1.80;74.30;;;;;;4950160;29;20044;-75
2021/01/22 10:26:59;;;;;;;130.20;45.13;;;1.80;74.30;;;;;;4950469;29;20028;-73
2021/01/22 10:29:25;;;;;;;133.55;45.90;;;1.80;74.30;;;;;;4950576;29;20131;-77
2021/01/22 10:31:51;;;;;;;131.75;44.67;;;1.80;74.30;;;;;;4919250;29;20561;-77
2021/01/22 10:34:17;;;;;;;135.82;46.88;;;1.80;74.30;;;;;;4919235;29;20071;-78
2021/01/22 10:36:43;;;;;;;135.10;48.88;;;1.90;74.40;;;;;;4919178;29;20040;-79
2021/01/22 10:39:10;;;;;;;139.40;47.78;;;1.90;74.50;;;;;;4919205;29;20032;-79
2021/01/22 10:41:36;;;;;;;141.27;47.88;;;1.90;74.50;;;;;;4919150;29;20529;-80
2021/01/22 10:44:02;;;;;;;132.50;46.13;;;1.90;74.50;;;;;;4918440;29;20048;-80
2021/01/22 10:46:28;;;;;;;150.98;48.22;;;1.90;74.50;;;;;;4949813;29;20047;-78
2021/01/22 10:48:55;;;;;;;129.13;46.22;;;1.90;74.50;;;;;;4950429;29;20062;-79
2021/01/22 10:51:21;;;;;;;133.57;47.92;;;2.00;74.60;;;;;;4949364;29;20384;-80
2021/01/22 10:53:46;;;;;;;135.93;45.40;;;2.00;74.60;;;;;;4918930;29;20050;-81
2021/01/22 10:56:12;;;;;;;132.48;45.17;;;2.00;74.60;;;;;;4917840;29;20044;-80
2021/01/22 10:58:39;;;;;;;138.13;44.67;;;2.00;74.60;;;;;;4933601;29;20047;-77
2021/01/22 11:01:05;;;;;;;150.73;47.92;;;2.00;74.70;;;;;;4918918;29;20123;-77
2021/01/22 11:03:32;;;;;;;129.48;47.30;;;2.00;74.70;;;;;;4918740;29;20594;-79
2021/01/22 11:05:58;;;;;;;138.00;46.28;;;2.00;74.80;;;;;;4917965;29;20067;-73
2021/01/22 11:08:25;;;;;;;140.90;46.83;;;2.00;74.80;;;;;;4919038;29;20036;-75
2021/01/22 11:10:51;;;;;;;132.13;45.22;;;2.00;74.90;;;;;;4918668;29;20044;-74
2021/01/22 11:13:17;;;;;;;127.47;44.40;;;2.00;74.90;;;;;;4917585;29;20051;-76
2021/01/22 11:15:43;;;;;;;146.32;47.63;;;2.00;74.90;;;;;;4918629;29;20448;-77
2021/01/22 11:18:10;;;;;;;132.80;46.88;;;2.10;75.00;;;;;;4933206;29;20078;-75
2021/01/22 11:20:39;;;;;;;121.30;44.03;;;2.10;75.00;;;;;;4918485;29;20048;-75
2021/01/22 11:23:05;;;;;;;140.77;45.40;;;2.10;75.00;;;;;;4917824;29;20048;-73
2021/01/22 11:25:31;;;;;;;139.77;46.90;;;2.10;75.10;;;;;;4933226;29;20127;-80
2021/01/22 11:27:56;;;;;;;137.95;47.53;;;2.10;75.10;;;;;;4917382;29;20036;-79
2021/01/22 11:30:22;;;;;;;130.00;45.17;;;2.10;75.10;;;;;;4918707;29;20028;-79
2021/01/22 11:32:48;;;;;;;146.27;47.15;;;2.10;75.10;;;;;;4918259;29;20118;-79
2021/01/22 11:35:14;;;;;;;135.52;46.35;;;2.10;75.10;;;;;;4919064;29;20047;-80
2021/01/22 11:37:42;;;;;;;135.27;48.42;;;2.10;75.20;;;;;;4933588;29;20036;-78
2021/01/22 11:40:09;;;;;;;134.13;45.25;;;2.10;75.20;;;;;;4917254;29;20040;-79
2021/01/22 11:42:35;;;;;;;134.15;46.35;;;2.20;75.30;;;;;;4917890;29;20066;-79
2021/01/22 11:45:03;;;;;;;130.02;46.22;;;2.10;75.30;;;;;;4918210;29;20048;-78
2021/01/22 11:47:29;;;;;;;138.57;46.45;;;2.10;75.40;;;;;;4918314;29;20040;-79
2021/01/22 11:49:54;;;;;;;132.52;46.90;;;2.10;75.40;;;;;;4918189;29;20066;-80
2021/01/22 11:52:20;;;;;;;133.32;46.35;;;2.20;75.50;;;;;;4948919;29;20040;-79
2021/01/22 11:54:46;;;;;;;132.02;48.60;;;2.10;75.60;;;;;;4948826;29;20520;-79
2021/01/22 11:57:12;;;;;;;138.05;47.97;;;2.10;75.60;;;;;;4918242;29;20044;-79
2021/01/22 11:59:38;;;;;;;135.40;45.90;;;2.20;75.80;;;;;;4917921;29;20084;-77
2021/01/22 12:02:04;;;;;;;136.35;48.03;;;2.20;75.80;;;;;;4918305;29;20036;-78
2021/01/22 12:04:30;;;;;;;131.60;46.55;;;2.20;75.90;;;;;;4948654;29;20040;-76
2021/01/22 12:06:56;;;;;;;131.23;46.13;;;2.20;76.00;;;;;;4917897;29;20052;-78
2021/01/22 12:09:22;;;;;;;127.03;46.17;;;2.20;76.00;;;;;;4916726;29;20139;-74
2021/01/22 12:11:48;;;;;;;138.35;46.78;;;2.20;76.10;;;;;;4918732;29;20525;-80
2021/01/22 12:14:14;;;;;;;135.38;47.60;;;2.20;76.20;;;;;;4917987;29;20032;-79
2021/01/22 12:16:39;;;;;;;131.27;46.50;;;2.20;76.30;;;;;;4921963;29;20046;-82
2021/01/22 12:19:06;;;;;;;131.35;46.38;;;2.20;76.30;;;;;;4919889;29;20036;-80
2021/01/22 12:21:32;;;;;;;130.68;46.50;;;2.20;76.40;;;;;;4919164;29;20513;-82
2021/01/22 12:23:58;;;;;;;130.93;45.72;;;2.20;76.40;;;;;;4918260;29;20035;-79
2021/01/22 12:26:24;;;;;;;138.60;45.22;;;2.20;76.50;;;;;;4917974;29;20044;-80
2021/01/22 12:28:50;;;;;;;136.40;45.42;;;2.20;76.60;;;;;;4917533;29;20040;-79
2021/01/22 12:31:17;;;;;;;132.25;45.60;;;2.20;76.60;;;;;;4917931;29;20518;-81
2021/01/22 12:33:43;;;;;;;136.45;46.85;;;2.20;76.70;;;;;;4900418;29;20040;-80
2021/01/22 12:36:09;;;;;;;134.75;46.65;;;2.30;76.80;;;;;;4917766;29;20055;-79
2021/01/22 12:38:36;;;;;;;137.77;46.83;;;2.20;76.80;;;;;;4947694;29;20422;-80
2021/01/22 12:41:03;;;;;;;126.03;43.80;;;2.20;76.90;;;;;;4917032;29;20043;-79
2021/01/22 12:43:33;;;;;;;133.38;47.53;;;2.20;77.00;;;;;;4915110;29;20056;-76
2021/01/22 12:46:00;;;;;;;130.10;46.75;;;2.20;77.10;;;;;;4916603;29;20172;-75
2021/01/22 12:48:26;;;;;;;131.80;48.20;;;2.20;77.10;;;;;;4916435;29;20032;-73
2021/01/22 12:50:52;;;;;;;132.18;47.80;;;2.20;77.20;;;;;;4916869;29;20032;-72
2021/01/22 12:53:18;;;;;;;129.43;46.55;;;2.20;77.40;;;;;;4931635;29;20043;-74
2021/01/22 12:55:47;;;;;;;133.35;45.75;;;2.20;77.40;;;;;;4916739;29;20040;-73